Decoded Metar for KFNL (FT COLLINS/LOVEL in CO, USA) (IATA:FNL) | Meteo·Mobile Aviation Weather
aviador You're here:

KFNL Decoded Metar

FT COLLINS/LOVEL in CO, USA
Report Time2019-05-19 22:56:00
UTC Time2019-05-19 23:14:45
Flight Rules vfr VFR
Wind320° at 07 kt
W.Decomp.*RWY 33: 6.6 kt HW 2.3 kt LCW
RWY 24: 2.3 kt HW 6.6 kt RCW
Visibility9999 m
Phenomena:N/A
Clouds:Broken 047 Hf
Expected CloudBase > 3,200 ft AGL from Temp-Dew spread
Ceiling4,700 ft
Temp10°C (ISA +5)
Dew Point02°C (58% RH)
AAT5.8°C
QNH1013 hPa
Density Alt5,709 ft
Elevation5,016 ft
Report Wrong Elevation
Raw Report
KFNL 192256Z AUTO 32007KT 10SM BKN047 10/02 A2990 RMK AO2 SLP111
T01000022=

Extra information for KFNL:More info

Metar Taf Metar & Taf Last 4 Metars F.Rules Stats Wind Profile Meteogram Temp Stats Airport Information Weather charts Add Link Nearby VenuesMetar ALERT Operation Metar Decoded Social comments

AIRNAV info for KFNL